sensor_id;sensor_type;location;lat;lon;timestamp;P1;durP1;ratioP1;P2;durP2;ratioP2
48891;SDS011;50130;52.150;5.236;2022-07-06T00:02:14;5.6;;;2.21;;
48891;SDS011;50130;52.150;5.236;2022-07-06T00:04:02;3.9;;;1.8;;
48891;SDS011;50130;52.150;5.236;2022-07-06T00:05:49;4.91;;;2.0;;
48891;SDS011;50130;52.150;5.236;2022-07-06T00:07:35;5.11;;;1.8;;
48891;SDS011;50130;52.150;5.236;2022-07-06T00:09:21;5.4;;;1.9;;
48891;SDS011;50130;52.150;5.236;2022-07-06T00:12:53;6.0;;;2.0;;
48891;SDS011;50130;52.150;5.236;2022-07-06T00:14:39;5.11;;;1.5;;
48891;SDS011;50130;52.150;5.236;2022-07-06T00:16:27;4.5;;;1.6;;
48891;SDS011;50130;52.150;5.236;2022-07-06T00:18:14;3.6;;;1.8;;
48891;SDS011;50130;52.150;5.236;2022-07-06T00:20:00;6.0;;;2.0;;
48891;SDS011;50130;52.150;5.236;2022-07-06T00:21:46;3.5;;;1.8;;
48891;SDS011;50130;52.150;5.236;2022-07-06T00:25:19;3.5;;;1.8;;
48891;SDS011;50130;52.150;5.236;2022-07-06T00:27:06;5.4;;;1.8;;
48891;SDS011;50130;52.150;5.236;2022-07-06T00:28:53;5.2;;;1.9;;
48891;SDS011;50130;52.150;5.236;2022-07-06T00:30:40;4.1;;;1.6;;
48891;SDS011;50130;52.150;5.236;2022-07-06T00:32:27;5.6;;;1.9;;
48891;SDS011;50130;52.150;5.236;2022-07-06T00:34:14;6.3;;;1.7;;
48891;SDS011;50130;52.150;5.236;2022-07-06T00:37:48;5.8;;;1.8;;
48891;SDS011;50130;52.150;5.236;2022-07-06T00:39:34;4.41;;;1.7;;
48891;SDS011;50130;52.150;5.236;2022-07-06T00:41:20;6.5;;;2.0;;
48891;SDS011;50130;52.150;5.236;2022-07-06T00:43:06;5.7;;;1.8;;
48891;SDS011;50130;52.150;5.236;2022-07-06T00:44:53;5.9;;;1.8;;
48891;SDS011;50130;52.150;5.236;2022-07-06T00:48:26;4.8;;;1.8;;
48891;SDS011;50130;52.150;5.236;2022-07-06T00:50:17;4.3;;;1.7;;
48891;SDS011;50130;52.150;5.236;2022-07-06T00:52:05;3.5;;;1.7;;
48891;SDS011;50130;52.150;5.236;2022-07-06T00:53:53;5.11;;;1.7;;
48891;SDS011;50130;52.150;5.236;2022-07-06T00:55:44;5.0;;;1.6;;
48891;SDS011;50130;52.150;5.236;2022-07-06T00:57:31;5.8;;;1.8;;
48891;SDS011;50130;52.150;5.236;2022-07-06T00:59:17;6.2;;;1.5;;
48891;SDS011;50130;52.150;5.236;2022-07-06T01:02:51;4.8;;;1.8;;
48891;SDS011;50130;52.150;5.236;2022-07-06T01:04:39;5.2;;;1.9;;
48891;SDS011;50130;52.150;5.236;2022-07-06T01:06:25;8.5;;;1.9;;
48891;SDS011;50130;52.150;5.236;2022-07-06T01:08:12;6.8;;;2.1;;
48891;SDS011;50130;52.150;5.236;2022-07-06T01:09:59;5.4;;;2.0;;
48891;SDS011;50130;52.150;5.236;2022-07-06T01:13:33;7.1;;;1.7;;
48891;SDS011;50130;52.150;5.236;2022-07-06T01:15:21;6.3;;;2.21;;
48891;SDS011;50130;52.150;5.236;2022-07-06T01:17:11;5.0;;;2.1;;
48891;SDS011;50130;52.150;5.236;2022-07-06T01:18:59;4.8;;;1.9;;
48891;SDS011;50130;52.150;5.236;2022-07-06T01:20:45;4.91;;;1.7;;
48891;SDS011;50130;52.150;5.236;2022-07-06T01:22:31;7.1;;;2.0;;
48891;SDS011;50130;52.150;5.236;2022-07-06T01:26:04;5.7;;;2.21;;
48891;SDS011;50130;52.150;5.236;2022-07-06T01:27:50;5.4;;;2.21;;
48891;SDS011;50130;52.150;5.236;2022-07-06T01:29:36;5.2;;;2.1;;
48891;SDS011;50130;52.150;5.236;2022-07-06T01:31:24;5.11;;;2.0;;
48891;SDS011;50130;52.150;5.236;2022-07-06T01:33:11;5.0;;;1.7;;
48891;SDS011;50130;52.150;5.236;2022-07-06T01:34:58;5.5;;;2.1;;
48891;SDS011;50130;52.150;5.236;2022-07-06T01:38:32;6.0;;;2.1;;
48891;SDS011;50130;52.150;5.236;2022-07-06T01:40:29;4.7;;;1.9;;
48891;SDS011;50130;52.150;5.236;2022-07-06T01:42:17;5.0;;;1.9;;
48891;SDS011;50130;52.150;5.236;2022-07-06T01:44:04;4.0;;;1.8;;
48891;SDS011;50130;52.150;5.236;2022-07-06T01:45:52;5.0;;;2.1;;
48891;SDS011;50130;52.150;5.236;2022-07-06T01:47:38;5.3;;;1.9;;
48891;SDS011;50130;52.150;5.236;2022-07-06T01:51:11;3.1;;;1.6;;
48891;SDS011;50130;52.150;5.236;2022-07-06T01:52:58;4.2;;;1.7;;
48891;SDS011;50130;52.150;5.236;2022-07-06T01:54:46;7.3;;;1.8;;
48891;SDS011;50130;52.150;5.236;2022-07-06T01:56:32;3.9;;;1.7;;
48891;SDS011;50130;52.150;5.236;2022-07-06T01:58:18;8.5;;;2.1;;
48891;SDS011;50130;52.150;5.236;2022-07-06T02:00:05;5.5;;;1.7;;
48891;SDS011;50130;52.150;5.236;2022-07-06T02:03:41;4.3;;;1.7;;
48891;SDS011;50130;52.150;5.236;2022-07-06T02:05:28;3.7;;;1.6;;
48891;SDS011;50130;52.150;5.236;2022-07-06T02:07:14;5.0;;;1.8;;
48891;SDS011;50130;52.150;5.236;2022-07-06T02:09:00;5.5;;;1.8;;
48891;SDS011;50130;52.150;5.236;2022-07-06T02:10:47;5.7;;;2.0;;
48891;SDS011;50130;52.150;5.236;2022-07-06T02:12:33;4.5;;;1.7;;
48891;SDS011;50130;52.150;5.236;2022-07-06T02:16:06;3.4;;;1.8;;
48891;SDS011;50130;52.150;5.236;2022-07-06T02:17:53;5.3;;;1.8;;
48891;SDS011;50130;52.150;5.236;2022-07-06T02:19:39;3.4;;;1.6;;
48891;SDS011;50130;52.150;5.236;2022-07-06T02:21:25;3.8;;;1.7;;
48891;SDS011;50130;52.150;5.236;2022-07-06T02:23:12;4.2;;;1.7;;
48891;SDS011;50130;52.150;5.236;2022-07-06T02:26:46;4.0;;;1.5;;
48891;SDS011;50130;52.150;5.236;2022-07-06T02:28:33;4.91;;;1.6;;
48891;SDS011;50130;52.150;5.236;2022-07-06T02:30:20;4.61;;;1.6;;
48891;SDS011;50130;52.150;5.236;2022-07-06T02:32:07;4.41;;;1.5;;
48891;SDS011;50130;52.150;5.236;2022-07-06T02:33:54;4.61;;;1.6;;
48891;SDS011;50130;52.150;5.236;2022-07-06T02:35:42;4.41;;;1.5;;
48891;SDS011;50130;52.150;5.236;2022-07-06T02:39:15;2.9;;;1.4;;
48891;SDS011;50130;52.150;5.236;2022-07-06T02:41:01;3.7;;;1.7;;
48891;SDS011;50130;52.150;5.236;2022-07-06T02:42:49;3.4;;;1.5;;
48891;SDS011;50130;52.150;5.236;2022-07-06T02:44:35;4.61;;;1.6;;
48891;SDS011;50130;52.150;5.236;2022-07-06T02:46:21;5.11;;;1.6;;
48891;SDS011;50130;52.150;5.236;2022-07-06T02:48:07;3.9;;;1.5;;
48891;SDS011;50130;52.150;5.236;2022-07-06T02:51:40;3.5;;;1.6;;
48891;SDS011;50130;52.150;5.236;2022-07-06T02:53:27;4.8;;;1.5;;
48891;SDS011;50130;52.150;5.236;2022-07-06T02:55:13;4.91;;;1.6;;
48891;SDS011;50130;52.150;5.236;2022-07-06T02:56:59;3.1;;;1.5;;
48891;SDS011;50130;52.150;5.236;2022-07-06T02:58:45;4.1;;;1.8;;
48891;SDS011;50130;52.150;5.236;2022-07-06T03:02:19;4.8;;;1.7;;
48891;SDS011;50130;52.150;5.236;2022-07-06T03:04:06;5.11;;;1.6;;
48891;SDS011;50130;52.150;5.236;2022-07-06T03:05:52;3.3;;;1.7;;
48891;SDS011;50130;52.150;5.236;2022-07-06T03:07:39;5.11;;;1.7;;
48891;SDS011;50130;52.150;5.236;2022-07-06T03:09:25;5.5;;;1.5;;
48891;SDS011;50130;52.150;5.236;2022-07-06T03:11:13;5.11;;;1.5;;
48891;SDS011;50130;52.150;5.236;2022-07-06T03:14:45;4.3;;;1.4;;
48891;SDS011;50130;52.150;5.236;2022-07-06T03:16:31;4.7;;;1.6;;
48891;SDS011;50130;52.150;5.236;2022-07-06T03:18:18;4.3;;;1.7;;
48891;SDS011;50130;52.150;5.236;2022-07-06T03:20:05;4.91;;;1.4;;
48891;SDS011;50130;52.150;5.236;2022-07-06T03:21:52;3.0;;;1.6;;
48891;SDS011;50130;52.150;5.236;2022-07-06T03:23:39;4.3;;;1.7;;
48891;SDS011;50130;52.150;5.236;2022-07-06T03:27:11;3.2;;;1.3;;
48891;SDS011;50130;52.150;5.236;2022-07-06T03:28:57;3.3;;;1.5;;
48891;SDS011;50130;52.150;5.236;2022-07-06T03:30:43;3.7;;;1.8;;
48891;SDS011;50130;52.150;5.236;2022-07-06T03:32:31;5.11;;;1.6;;
48891;SDS011;50130;52.150;5.236;2022-07-06T03:34:18;5.7;;;1.6;;
48891;SDS011;50130;52.150;5.236;2022-07-06T03:37:52;3.8;;;1.4;;
48891;SDS011;50130;52.150;5.236;2022-07-06T03:39:38;5.0;;;1.5;;
48891;SDS011;50130;52.150;5.236;2022-07-06T03:41:24;3.8;;;1.4;;
48891;SDS011;50130;52.150;5.236;2022-07-06T03:43:11;6.3;;;1.8;;
48891;SDS011;50130;52.150;5.236;2022-07-06T03:44:58;5.4;;;1.7;;
48891;SDS011;50130;52.150;5.236;2022-07-06T03:46:44;5.9;;;1.8;;
48891;SDS011;50130;52.150;5.236;2022-07-06T03:50:18;5.2;;;1.7;;
48891;SDS011;50130;52.150;5.236;2022-07-06T03:52:05;4.5;;;1.5;;
48891;SDS011;50130;52.150;5.236;2022-07-06T03:53:51;5.11;;;1.6;;
48891;SDS011;50130;52.150;5.236;2022-07-06T03:55:37;3.6;;;1.5;;
48891;SDS011;50130;52.150;5.236;2022-07-06T03:57:25;3.7;;;1.5;;
48891;SDS011;50130;52.150;5.236;2022-07-06T03:59:11;3.9;;;1.5;;
48891;SDS011;50130;52.150;5.236;2022-07-06T04:02:46;4.3;;;1.5;;
48891;SDS011;50130;52.150;5.236;2022-07-06T04:04:33;3.6;;;1.5;;
48891;SDS011;50130;52.150;5.236;2022-07-06T04:06:20;4.8;;;1.4;;
48891;SDS011;50130;52.150;5.236;2022-07-06T04:08:07;2.8;;;1.4;;
48891;SDS011;50130;52.150;5.236;2022-07-06T04:09:53;2.7;;;1.3;;
48891;SDS011;50130;52.150;5.236;2022-07-06T04:13:27;4.5;;;1.7;;
48891;SDS011;50130;52.150;5.236;2022-07-06T04:15:13;5.3;;;1.9;;
48891;SDS011;50130;52.150;5.236;2022-07-06T04:17:51;5.2;;;1.7;;
48891;SDS011;50130;52.150;5.236;2022-07-06T04:19:37;3.4;;;1.6;;
48891;SDS011;50130;52.150;5.236;2022-07-06T04:21:24;4.0;;;1.7;;
48891;SDS011;50130;52.150;5.236;2022-07-06T04:23:10;4.5;;;1.4;;
48891;SDS011;50130;52.150;5.236;2022-07-06T04:24:57;4.1;;;1.4;;
48891;SDS011;50130;52.150;5.236;2022-07-06T04:26:43;5.2;;;1.6;;
48891;SDS011;50130;52.150;5.236;2022-07-06T04:28:29;4.3;;;1.5;;
48891;SDS011;50130;52.150;5.236;2022-07-06T04:32:02;4.2;;;1.5;;
48891;SDS011;50130;52.150;5.236;2022-07-06T04:33:49;3.0;;;1.3;;
48891;SDS011;50130;52.150;5.236;2022-07-06T04:35:35;4.7;;;1.5;;
48891;SDS011;50130;52.150;5.236;2022-07-06T04:37:21;5.2;;;1.5;;
48891;SDS011;50130;52.150;5.236;2022-07-06T04:39:08;4.61;;;1.6;;
48891;SDS011;50130;52.150;5.236;2022-07-06T04:42:42;4.2;;;1.6;;
48891;SDS011;50130;52.150;5.236;2022-07-06T04:44:29;3.9;;;1.5;;
48891;SDS011;50130;52.150;5.236;2022-07-06T04:46:16;4.8;;;1.5;;
48891;SDS011;50130;52.150;5.236;2022-07-06T04:48:02;3.6;;;1.5;;
48891;SDS011;50130;52.150;5.236;2022-07-06T04:49:50;5.2;;;1.7;;
48891;SDS011;50130;52.150;5.236;2022-07-06T04:51:37;4.2;;;1.7;;
48891;SDS011;50130;52.150;5.236;2022-07-06T04:55:10;3.6;;;1.5;;
48891;SDS011;50130;52.150;5.236;2022-07-06T04:56:57;3.7;;;1.4;;
48891;SDS011;50130;52.150;5.236;2022-07-06T04:58:43;4.3;;;1.5;;
48891;SDS011;50130;52.150;5.236;2022-07-06T05:00:29;2.7;;;1.3;;
48891;SDS011;50130;52.150;5.236;2022-07-06T05:02:17;4.1;;;1.5;;
48891;SDS011;50130;52.150;5.236;2022-07-06T05:04:03;4.0;;;1.3;;
48891;SDS011;50130;52.150;5.236;2022-07-06T05:07:39;5.9;;;1.3;;
48891;SDS011;50130;52.150;5.236;2022-07-06T05:09:25;4.61;;;1.11;;
48891;SDS011;50130;52.150;5.236;2022-07-06T05:11:12;3.9;;;1.4;;
48891;SDS011;50130;52.150;5.236;2022-07-06T05:12:58;6.4;;;1.4;;
48891;SDS011;50130;52.150;5.236;2022-07-06T05:14:44;4.61;;;1.3;;
48891;SDS011;50130;52.150;5.236;2022-07-06T05:18:16;3.4;;;1.4;;
48891;SDS011;50130;52.150;5.236;2022-07-06T05:20:04;4.1;;;1.5;;
48891;SDS011;50130;52.150;5.236;2022-07-06T05:21:51;4.61;;;1.6;;
48891;SDS011;50130;52.150;5.236;2022-07-06T05:23:38;3.7;;;1.11;;
48891;SDS011;50130;52.150;5.236;2022-07-06T05:25:25;3.3;;;1.2;;
48891;SDS011;50130;52.150;5.236;2022-07-06T05:27:11;2.6;;;1.3;;
48891;SDS011;50130;52.150;5.236;2022-07-06T05:30:43;4.3;;;1.3;;
48891;SDS011;50130;52.150;5.236;2022-07-06T05:32:30;3.9;;;1.11;;
48891;SDS011;50130;52.150;5.236;2022-07-06T05:34:16;4.1;;;1.11;;
48891;SDS011;50130;52.150;5.236;2022-07-06T05:36:03;4.7;;;1.4;;
48891;SDS011;50130;52.150;5.236;2022-07-06T05:37:50;3.9;;;1.4;;
48891;SDS011;50130;52.150;5.236;2022-07-06T05:39:38;3.6;;;1.4;;
48891;SDS011;50130;52.150;5.236;2022-07-06T05:43:11;4.41;;;1.3;;
48891;SDS011;50130;52.150;5.236;2022-07-06T05:44:57;4.41;;;1.2;;
48891;SDS011;50130;52.150;5.236;2022-07-06T05:46:43;5.7;;;1.5;;
48891;SDS011;50130;52.150;5.236;2022-07-06T05:51:33;4.1;;;1.4;;
48891;SDS011;50130;52.150;5.236;2022-07-06T05:53:20;5.9;;;1.4;;
48891;SDS011;50130;52.150;5.236;2022-07-06T05:55:07;4.3;;;1.3;;
48891;SDS011;50130;52.150;5.236;2022-07-06T05:56:54;4.61;;;1.2;;
48891;SDS011;50130;52.150;5.236;2022-07-06T05:58:40;4.61;;;1.4;;
48891;SDS011;50130;52.150;5.236;2022-07-06T06:02:14;3.8;;;1.2;;
48891;SDS011;50130;52.150;5.236;2022-07-06T06:04:02;3.9;;;1.3;;
48891;SDS011;50130;52.150;5.236;2022-07-06T06:05:49;3.5;;;1.11;;
48891;SDS011;50130;52.150;5.236;2022-07-06T06:07:36;5.0;;;1.3;;
48891;SDS011;50130;52.150;5.236;2022-07-06T06:09:23;5.7;;;1.11;;
48891;SDS011;50130;52.150;5.236;2022-07-06T06:11:09;4.91;;;1.2;;
48891;SDS011;50130;52.150;5.236;2022-07-06T06:14:43;4.41;;;1.2;;
48891;SDS011;50130;52.150;5.236;2022-07-06T06:16:30;4.61;;;1.3;;
48891;SDS011;50130;52.150;5.236;2022-07-06T06:18:18;4.2;;;1.2;;
48891;SDS011;50130;52.150;5.236;2022-07-06T06:20:07;2.9;;;1.0;;
48891;SDS011;50130;52.150;5.236;2022-07-06T06:21:56;3.2;;;1.3;;
48891;SDS011;50130;52.150;5.236;2022-07-06T06:23:42;2.8;;;0.8;;
48891;SDS011;50130;52.150;5.236;2022-07-06T06:27:18;3.0;;;0.9;;
48891;SDS011;50130;52.150;5.236;2022-07-06T06:29:05;2.9;;;1.0;;
48891;SDS011;50130;52.150;5.236;2022-07-06T06:30:51;4.7;;;1.0;;
48891;SDS011;50130;52.150;5.236;2022-07-06T06:32:37;4.3;;;1.3;;
48891;SDS011;50130;52.150;5.236;2022-07-06T06:34:24;4.1;;;1.11;;
48891;SDS011;50130;52.150;5.236;2022-07-06T06:36:11;4.5;;;1.11;;
48891;SDS011;50130;52.150;5.236;2022-07-06T06:39:43;3.8;;;1.0;;
48891;SDS011;50130;52.150;5.236;2022-07-06T06:41:30;5.0;;;1.0;;
48891;SDS011;50130;52.150;5.236;2022-07-06T06:43:16;5.4;;;1.2;;
48891;SDS011;50130;52.150;5.236;2022-07-06T06:45:03;9.0;;;1.5;;
48891;SDS011;50130;52.150;5.236;2022-07-06T06:46:50;3.3;;;1.0;;
48891;SDS011;50130;52.150;5.236;2022-07-06T06:50:23;6.1;;;1.0;;
48891;SDS011;50130;52.150;5.236;2022-07-06T06:52:10;4.2;;;1.2;;
48891;SDS011;50130;52.150;5.236;2022-07-06T06:53:56;5.7;;;1.4;;
48891;SDS011;50130;52.150;5.236;2022-07-06T06:55:42;5.11;;;1.11;;
48891;SDS011;50130;52.150;5.236;2022-07-06T06:57:30;4.3;;;0.9;;
48891;SDS011;50130;52.150;5.236;2022-07-06T06:59:16;4.91;;;1.0;;
48891;SDS011;50130;52.150;5.236;2022-07-06T07:02:51;4.8;;;0.8;;
48891;SDS011;50130;52.150;5.236;2022-07-06T07:04:37;6.3;;;1.0;;
48891;SDS011;50130;52.150;5.236;2022-07-06T07:06:23;5.4;;;1.0;;
48891;SDS011;50130;52.150;5.236;2022-07-06T07:08:10;6.2;;;1.11;;
48891;SDS011;50130;52.150;5.236;2022-07-06T07:09:56;3.3;;;0.9;;
48891;SDS011;50130;52.150;5.236;2022-07-06T07:11:43;3.8;;;1.11;;
48891;SDS011;50130;52.150;5.236;2022-07-06T07:15:15;5.0;;;1.2;;
48891;SDS011;50130;52.150;5.236;2022-07-06T07:17:03;5.6;;;1.11;;
48891;SDS011;50130;52.150;5.236;2022-07-06T07:18:50;3.6;;;0.9;;
48891;SDS011;50130;52.150;5.236;2022-07-06T07:20:36;4.3;;;0.9;;
48891;SDS011;50130;52.150;5.236;2022-07-06T07:22:24;7.0;;;1.2;;
48891;SDS011;50130;52.150;5.236;2022-07-06T07:25:56;4.2;;;0.8;;
48891;SDS011;50130;52.150;5.236;2022-07-06T07:27:42;5.4;;;0.9;;
48891;SDS011;50130;52.150;5.236;2022-07-06T07:29:29;5.5;;;1.11;;
48891;SDS011;50130;52.150;5.236;2022-07-06T07:31:15;7.4;;;1.3;;
48891;SDS011;50130;52.150;5.236;2022-07-06T07:33:01;4.91;;;1.11;;
48891;SDS011;50130;52.150;5.236;2022-07-06T07:34:47;4.41;;;1.2;;
48891;SDS011;50130;52.150;5.236;2022-07-06T07:38:20;5.0;;;1.11;;
48891;SDS011;50130;52.150;5.236;2022-07-06T07:40:06;4.61;;;0.8;;
48891;SDS011;50130;52.150;5.236;2022-07-06T07:41:53;7.4;;;1.11;;
48891;SDS011;50130;52.150;5.236;2022-07-06T07:43:39;6.1;;;0.9;;
48891;SDS011;50130;52.150;5.236;2022-07-06T07:45:25;3.6;;;0.8;;
48891;SDS011;50130;52.150;5.236;2022-07-06T07:48:58;5.6;;;1.0;;
48891;SDS011;50130;52.150;5.236;2022-07-06T07:50:45;6.9;;;1.2;;
48891;SDS011;50130;52.150;5.236;2022-07-06T07:52:31;3.1;;;0.6;;
48891;SDS011;50130;52.150;5.236;2022-07-06T07:54:18;5.9;;;0.9;;
48891;SDS011;50130;52.150;5.236;2022-07-06T07:56:04;3.6;;;1.0;;
48891;SDS011;50130;52.150;5.236;2022-07-06T07:57:52;3.7;;;0.7;;
48891;SDS011;50130;52.150;5.236;2022-07-06T08:01:24;2.7;;;0.8;;
48891;SDS011;50130;52.150;5.236;2022-07-06T08:03:11;3.6;;;1.0;;
48891;SDS011;50130;52.150;5.236;2022-07-06T08:04:58;3.3;;;0.8;;
48891;SDS011;50130;52.150;5.236;2022-07-06T08:06:44;5.0;;;1.3;;
48891;SDS011;50130;52.150;5.236;2022-07-06T08:08:32;2.7;;;0.8;;
48891;SDS011;50130;52.150;5.236;2022-07-06T08:10:18;5.3;;;1.0;;
48891;SDS011;50130;52.150;5.236;2022-07-06T08:13:52;5.6;;;1.0;;
48891;SDS011;50130;52.150;5.236;2022-07-06T08:15:39;3.6;;;0.8;;
48891;SDS011;50130;52.150;5.236;2022-07-06T08:17:27;3.9;;;0.7;;
48891;SDS011;50130;52.150;5.236;2022-07-06T08:19:15;3.9;;;0.9;;
48891;SDS011;50130;52.150;5.236;2022-07-06T08:21:02;4.0;;;0.9;;
48891;SDS011;50130;52.150;5.236;2022-07-06T08:22:49;4.5;;;0.8;;
48891;SDS011;50130;52.150;5.236;2022-07-06T08:26:23;3.2;;;0.9;;
48891;SDS011;50130;52.150;5.236;2022-07-06T08:28:09;2.7;;;0.7;;
48891;SDS011;50130;52.150;5.236;2022-07-06T08:29:56;3.6;;;0.5;;
48891;SDS011;50130;52.150;5.236;2022-07-06T08:31:42;3.7;;;0.9;;
48891;SDS011;50130;52.150;5.236;2022-07-06T08:33:29;8.5;;;1.0;;
48891;SDS011;50130;52.150;5.236;2022-07-06T08:37:03;3.0;;;0.7;;
48891;SDS011;50130;52.150;5.236;2022-07-06T08:38:49;2.31;;;0.7;;
48891;SDS011;50130;52.150;5.236;2022-07-06T08:40:36;3.2;;;0.9;;
48891;SDS011;50130;52.150;5.236;2022-07-06T08:42:27;3.5;;;0.7;;
48891;SDS011;50130;52.150;5.236;2022-07-06T08:44:17;5.3;;;0.8;;
48891;SDS011;50130;52.150;5.236;2022-07-06T08:46:06;2.0;;;0.6;;
48891;SDS011;50130;52.150;5.236;2022-07-06T08:47:54;127.6;;;3.6;;
48891;SDS011;50130;52.150;5.236;2022-07-06T08:51:31;2.4;;;0.5;;
48891;SDS011;50130;52.150;5.236;2022-07-06T08:53:17;3.1;;;0.6;;
48891;SDS011;50130;52.150;5.236;2022-07-06T08:55:04;2.1;;;0.5;;
48891;SDS011;50130;52.150;5.236;2022-07-06T08:56:51;2.1;;;0.5;;
48891;SDS011;50130;52.150;5.236;2022-07-06T08:58:42;3.3;;;0.7;;
48891;SDS011;50130;52.150;5.236;2022-07-06T09:00:29;1.8;;;0.6;;
48891;SDS011;50130;52.150;5.236;2022-07-06T09:04:09;2.4;;;0.5;;
48891;SDS011;50130;52.150;5.236;2022-07-06T09:05:59;1.5;;;0.5;;
48891;SDS011;50130;52.150;5.236;2022-07-06T09:07:49;1.8;;;0.5;;
48891;SDS011;50130;52.150;5.236;2022-07-06T09:11:26;2.31;;;0.6;;
48891;SDS011;50130;52.150;5.236;2022-07-06T09:13:12;1.6;;;0.4;;
48891;SDS011;50130;52.150;5.236;2022-07-06T09:16:44;1.11;;;0.4;;
48891;SDS011;50130;52.150;5.236;2022-07-06T09:18:37;2.4;;;0.5;;
48891;SDS011;50130;52.150;5.236;2022-07-06T09:20:25;2.0;;;0.3;;
48891;SDS011;50130;52.150;5.236;2022-07-06T09:22:24;2.9;;;0.9;;
48891;SDS011;50130;52.150;5.236;2022-07-06T09:24:11;1.5;;;0.4;;
48891;SDS011;50130;52.150;5.236;2022-07-06T09:26:01;2.8;;;0.4;;
48891;SDS011;50130;52.150;5.236;2022-07-06T09:27:50;2.4;;;0.4;;
48891;SDS011;50130;52.150;5.236;2022-07-06T09:31:32;1.4;;;0.5;;
48891;SDS011;50130;52.150;5.236;2022-07-06T09:33:18;2.21;;;0.6;;
48891;SDS011;50130;52.150;5.236;2022-07-06T09:35:04;2.8;;;0.5;;
48891;SDS011;50130;52.150;5.236;2022-07-06T09:36:51;2.21;;;0.5;;
48891;SDS011;50130;52.150;5.236;2022-07-06T09:38:37;2.6;;;0.4;;
48891;SDS011;50130;52.150;5.236;2022-07-06T09:40:24;3.0;;;0.4;;
48891;SDS011;50130;52.150;5.236;2022-07-06T09:43:57;3.0;;;0.5;;
48891;SDS011;50130;52.150;5.236;2022-07-06T09:45:44;1.9;;;0.5;;
48891;SDS011;50130;52.150;5.236;2022-07-06T09:47:32;1.4;;;0.4;;
48891;SDS011;50130;52.150;5.236;2022-07-06T09:49:19;2.8;;;0.5;;
48891;SDS011;50130;52.150;5.236;2022-07-06T09:51:07;2.9;;;0.6;;
48891;SDS011;50130;52.150;5.236;2022-07-06T09:52:54;1.0;;;0.4;;
48891;SDS011;50130;52.150;5.236;2022-07-06T09:56:35;30.0;;;1.6;;
48891;SDS011;50130;52.150;5.236;2022-07-06T09:58:22;2.8;;;0.5;;
48891;SDS011;50130;52.150;5.236;2022-07-06T10:00:09;1.4;;;0.4;;
48891;SDS011;50130;52.150;5.236;2022-07-06T10:01:58;3.0;;;0.4;;
48891;SDS011;50130;52.150;5.236;2022-07-06T10:03:46;1.0;;;0.4;;
48891;SDS011;50130;52.150;5.236;2022-07-06T10:05:35;1.9;;;0.5;;
48891;SDS011;50130;52.150;5.236;2022-07-06T10:07:23;1.5;;;0.5;;
48891;SDS011;50130;52.150;5.236;2022-07-06T10:11:00;1.7;;;0.5;;
48891;SDS011;50130;52.150;5.236;2022-07-06T10:12:49;2.31;;;0.4;;
48891;SDS011;50130;52.150;5.236;2022-07-06T10:14:36;2.7;;;0.4;;
48891;SDS011;50130;52.150;5.236;2022-07-06T10:16:24;1.5;;;0.5;;
48891;SDS011;50130;52.150;5.236;2022-07-06T10:18:12;2.4;;;0.5;;
48891;SDS011;50130;52.150;5.236;2022-07-06T10:19:59;5.2;;;0.5;;
48891;SDS011;50130;52.150;5.236;2022-07-06T10:23:36;1.5;;;0.3;;
48891;SDS011;50130;52.150;5.236;2022-07-06T10:25:22;5.0;;;0.5;;
48891;SDS011;50130;52.150;5.236;2022-07-06T10:27:10;1.3;;;0.4;;
48891;SDS011;50130;52.150;5.236;2022-07-06T10:28:59;1.0;;;0.4;;
48891;SDS011;50130;52.150;5.236;2022-07-06T10:30:46;1.6;;;0.5;;
48891;SDS011;50130;52.150;5.236;2022-07-06T10:32:36;4.0;;;0.4;;
48891;SDS011;50130;52.150;5.236;2022-07-06T10:36:12;22.0;;;0.9;;
48891;SDS011;50130;52.150;5.236;2022-07-06T10:38:03;54.8;;;1.5;;
48891;SDS011;50130;52.150;5.236;2022-07-06T10:42:56;1.11;;;0.4;;
48891;SDS011;50130;52.150;5.236;2022-07-06T10:44:45;6.8;;;0.8;;
48891;SDS011;50130;52.150;5.236;2022-07-06T10:46:32;2.0;;;0.6;;
48891;SDS011;50130;52.150;5.236;2022-07-06T10:48:22;2.21;;;0.5;;
48891;SDS011;50130;52.150;5.236;2022-07-06T10:50:08;2.1;;;0.6;;
48891;SDS011;50130;52.150;5.236;2022-07-06T10:51:56;2.5;;;0.5;;
48891;SDS011;50130;52.150;5.236;2022-07-06T10:53:44;2.5;;;0.5;;
48891;SDS011;50130;52.150;5.236;2022-07-06T10:55:32;4.5;;;0.6;;
48891;SDS011;50130;52.150;5.236;2022-07-06T10:59:08;2.9;;;0.7;;
48891;SDS011;50130;52.150;5.236;2022-07-06T11:00:56;1.4;;;0.4;;
48891;SDS011;50130;52.150;5.236;2022-07-06T11:02:42;2.9;;;0.6;;
48891;SDS011;50130;52.150;5.236;2022-07-06T11:04:30;2.21;;;0.7;;
48891;SDS011;50130;52.150;5.236;2022-07-06T11:06:18;1.8;;;0.4;;
48891;SDS011;50130;52.150;5.236;2022-07-06T11:08:08;1.4;;;0.5;;
48891;SDS011;50130;52.150;5.236;2022-07-06T11:11:48;2.7;;;0.5;;
48891;SDS011;50130;52.150;5.236;2022-07-06T11:13:39;2.8;;;0.7;;
48891;SDS011;50130;52.150;5.236;2022-07-06T11:16:27;3.6;;;0.5;;
48891;SDS011;50130;52.150;5.236;2022-07-06T11:18:18;40.71;;;1.6;;
48891;SDS011;50130;52.150;5.236;2022-07-06T11:20:08;1.7;;;0.5;;
48891;SDS011;50130;52.150;5.236;2022-07-06T11:21:58;2.7;;;0.6;;
48891;SDS011;50130;52.150;5.236;2022-07-06T11:23:52;1.8;;;0.6;;
48891;SDS011;50130;52.150;5.236;2022-07-06T11:25:40;2.4;;;0.5;;
48891;SDS011;50130;52.150;5.236;2022-07-06T11:27:27;2.8;;;0.5;;
48891;SDS011;50130;52.150;5.236;2022-07-06T11:29:13;1.7;;;0.5;;
48891;SDS011;50130;52.150;5.236;2022-07-06T11:32:47;2.1;;;0.8;;
48891;SDS011;50130;52.150;5.236;2022-07-06T11:34:35;2.21;;;0.4;;
48891;SDS011;50130;52.150;5.236;2022-07-06T11:36:23;3.8;;;0.6;;
48891;SDS011;50130;52.150;5.236;2022-07-06T11:38:24;1.7;;;0.5;;
48891;SDS011;50130;52.150;5.236;2022-07-06T11:40:11;3.2;;;0.6;;
48891;SDS011;50130;52.150;5.236;2022-07-06T11:42:00;2.0;;;0.4;;
48891;SDS011;50130;52.150;5.236;2022-07-06T11:43:51;54.3;;;1.6;;
48891;SDS011;50130;52.150;5.236;2022-07-06T11:47:30;3.6;;;0.6;;
48891;SDS011;50130;52.150;5.236;2022-07-06T11:49:17;34.1;;;1.11;;
48891;SDS011;50130;52.150;5.236;2022-07-06T11:51:05;2.4;;;0.6;;
48891;SDS011;50130;52.150;5.236;2022-07-06T11:52:51;0.7;;;0.4;;
48891;SDS011;50130;52.150;5.236;2022-07-06T11:54:37;2.8;;;0.7;;
48891;SDS011;50130;52.150;5.236;2022-07-06T11:56:27;2.1;;;0.5;;
48891;SDS011;50130;52.150;5.236;2022-07-06T11:58:15;9.81;;;0.6;;
48891;SDS011;50130;52.150;5.236;2022-07-06T12:01:58;11.1;;;1.0;;
48891;SDS011;50130;52.150;5.236;2022-07-06T12:03:45;1.9;;;0.5;;
48891;SDS011;50130;52.150;5.236;2022-07-06T12:05:31;2.0;;;0.5;;
48891;SDS011;50130;52.150;5.236;2022-07-06T12:07:19;2.21;;;0.6;;
48891;SDS011;50130;52.150;5.236;2022-07-06T12:09:06;2.0;;;0.5;;
48891;SDS011;50130;52.150;5.236;2022-07-06T12:10:52;1.7;;;0.4;;
48891;SDS011;50130;52.150;5.236;2022-07-06T12:14:25;2.7;;;0.6;;
48891;SDS011;50130;52.150;5.236;2022-07-06T12:16:13;1.11;;;0.5;;
48891;SDS011;50130;52.150;5.236;2022-07-06T12:18:01;3.8;;;0.6;;
48891;SDS011;50130;52.150;5.236;2022-07-06T12:19:52;3.0;;;0.6;;
48891;SDS011;50130;52.150;5.236;2022-07-06T12:21:43;3.1;;;0.7;;
48891;SDS011;50130;52.150;5.236;2022-07-06T12:23:37;3.1;;;0.8;;
48891;SDS011;50130;52.150;5.236;2022-07-06T12:29:10;1.9;;;0.6;;
48891;SDS011;50130;52.150;5.236;2022-07-06T12:30:58;2.6;;;0.8;;
48891;SDS011;50130;52.150;5.236;2022-07-06T12:32:44;3.0;;;0.8;;
48891;SDS011;50130;52.150;5.236;2022-07-06T12:34:32;3.0;;;0.8;;
48891;SDS011;50130;52.150;5.236;2022-07-06T12:36:18;3.2;;;0.8;;
48891;SDS011;50130;52.150;5.236;2022-07-06T12:38:05;3.0;;;0.7;;
48891;SDS011;50130;52.150;5.236;2022-07-06T12:41:42;2.5;;;0.7;;
48891;SDS011;50130;52.150;5.236;2022-07-06T12:43:38;2.21;;;0.8;;
48891;SDS011;50130;52.150;5.236;2022-07-06T12:45:26;26.1;;;1.11;;
48891;SDS011;50130;52.150;5.236;2022-07-06T12:47:15;1.11;;;0.4;;
48891;SDS011;50130;52.150;5.236;2022-07-06T12:49:10;2.8;;;0.7;;
48891;SDS011;50130;52.150;5.236;2022-07-06T12:51:01;2.8;;;0.7;;
48891;SDS011;50130;52.150;5.236;2022-07-06T12:52:47;2.0;;;0.6;;
48891;SDS011;50130;52.150;5.236;2022-07-06T12:58:17;1.4;;;0.5;;
48891;SDS011;50130;52.150;5.236;2022-07-06T13:00:06;1.9;;;0.6;;
48891;SDS011;50130;52.150;5.236;2022-07-06T13:01:56;2.5;;;0.5;;
48891;SDS011;50130;52.150;5.236;2022-07-06T13:03:42;21.2;;;1.0;;
48891;SDS011;50130;52.150;5.236;2022-07-06T13:05:30;3.1;;;0.8;;
48891;SDS011;50130;52.150;5.236;2022-07-06T13:09:04;2.21;;;0.6;;